Clarkston, Washington
Current Conditions -  °F | °C
As of 1:56 PM on Friday 24 Oct 2014 (Local Time) from KLWS Reporting Station
Few Clouds Few Clouds  
Wind Chill: 14°   Ceiling: Unl
Heat Index: 14°   Visibility: 10mi
Dew Point:   Wind: 5mph
Humidity: 72%   Direction: 50°NE
Pressure: 30.04"   Gusts: NA
Location:  46.41°N, 117.04°W
Report Text: KLWS 242056Z 05004KT 10SM FEW085 14/09 A3004 RMK AO2 SLP172 T01440094 58017
Loading
Personal Weather Stations






























Interactive Weather Map
Tropical Storm Tracking
New forecast layout! Learn more

10-Day Weather Forecast

Advertisements
Track Severe Weather on mobile